Time;durP1;ratioP1;P1;durP2;ratioP2;P2;SDS_P1;SDS_P2;PMS_P1;PMS_P2;Temp;Humidity;BMP_temperature;BMP_pressure;BME280_temperature;BME280_humidity;BME280_pressure;Samples;Min_cycle;Max_cycle;Signal;HPM_P1;HPM_P2
2022/06/27 00:00:18;;;;;;;6.38;5.10;;;22.70;68.30;;;;;;5071542;28;20037;-13
2022/06/27 00:02:44;;;;;;;8.63;4.28;;;22.60;68.60;;;;;;5074033;28;20178;-12
2022/06/27 00:05:11;;;;;;;6.32;3.97;;;22.60;68.80;;;;;;5072953;28;20486;-12
2022/06/27 00:07:38;;;;;;;9.10;4.43;;;22.60;69.00;;;;;;5072909;28;20056;-13
2022/06/27 00:10:06;;;;;;;7.82;4.22;;;22.50;70.00;;;;;;5073041;28;20368;-13
2022/06/27 00:12:32;;;;;;;7.07;4.50;;;22.50;70.20;;;;;;5072548;28;20131;-13
2022/06/27 00:14:59;;;;;;;6.70;4.45;;;22.40;71.40;;;;;;5072825;28;20032;-13
2022/06/27 00:17:27;;;;;;;7.10;4.15;;;22.40;71.10;;;;;;5072656;28;20032;-13
2022/06/27 00:19:54;;;;;;;7.75;4.20;;;22.40;70.60;;;;;;5073093;28;20158;-13
2022/06/27 00:22:20;;;;;;;6.95;4.55;;;22.40;70.90;;;;;;5073211;28;20032;-13
2022/06/27 00:24:46;;;;;;;7.20;4.40;;;22.40;70.80;;;;;;5073236;28;20021;-13
2022/06/27 00:27:12;;;;;;;6.97;4.70;;;22.40;70.80;;;;;;5072926;28;20032;-13
2022/06/27 00:29:40;;;;;;;8.35;4.53;;;22.40;71.40;;;;;;5072708;28;20028;-12
2022/06/27 00:32:07;;;;;;;6.57;3.92;;;22.40;70.80;;;;;;5072838;28;20033;-13
2022/06/27 00:34:33;;;;;;;7.70;3.80;;;22.40;70.60;;;;;;5072558;28;20470;-13
2022/06/27 00:37:00;;;;;;;8.10;4.22;;;22.40;70.50;;;;;;5072508;28;20028;-13
2022/06/27 00:39:26;;;;;;;7.18;4.13;;;22.40;70.50;;;;;;5072596;28;20033;-12
2022/06/27 00:41:53;;;;;;;10.48;4.80;;;22.40;70.40;;;;;;5072468;28;20075;-13
2022/06/27 00:44:51;;;;;;;8.65;4.80;;;22.40;70.60;;;;;;5072561;28;20361;-13
2022/06/27 00:47:18;;;;;;;8.85;4.10;;;22.40;71.60;;;;;;5010779;28;20592;-13
2022/06/27 00:49:44;;;;;;;6.93;4.20;;;22.40;70.70;;;;;;5014335;28;20029;-12
2022/06/27 00:52:13;;;;;;;5.85;3.97;;;22.40;70.70;;;;;;4998106;28;20037;-13
2022/06/27 00:54:42;;;;;;;5.40;4.10;;;22.30;70.70;;;;;;5014455;28;20084;-13
2022/06/27 00:57:11;;;;;;;6.65;3.95;;;22.30;70.50;;;;;;5014333;28;20050;-12
2022/06/27 00:59:38;;;;;;;8.73;4.05;;;22.30;70.90;;;;;;5014450;28;20026;-12
2022/06/27 01:02:05;;;;;;;7.38;4.40;;;22.30;70.90;;;;;;5014182;28;20481;-12
2022/06/27 01:04:32;;;;;;;8.07;3.95;;;22.20;70.70;;;;;;5014313;28;20034;-12
2022/06/27 01:06:58;;;;;;;5.82;4.10;;;22.20;70.80;;;;;;5014199;28;20490;-12
2022/06/27 01:09:25;;;;;;;6.60;4.60;;;22.20;71.00;;;;;;5014283;28;20034;-12
2022/06/27 01:11:51;;;;;;;7.00;4.60;;;22.10;71.30;;;;;;5013938;28;20131;-14
2022/06/27 01:14:18;;;;;;;8.80;5.20;;;22.10;71.20;;;;;;5013912;28;20485;-14
2022/06/27 01:16:45;;;;;;;6.50;3.92;;;22.10;71.50;;;;;;5013935;28;20041;-14
2022/06/27 01:19:17;;;;;;;9.63;4.85;;;22.10;71.40;;;;;;5014275;28;20030;-14
2022/06/27 01:22:12;;;;;;;7.43;4.57;;;22.00;71.60;;;;;;5016199;28;20109;-12
2022/06/27 01:24:38;;;;;;;8.05;4.85;;;22.00;71.70;;;;;;5013757;28;20096;-13
2022/06/27 01:27:06;;;;;;;9.30;5.20;;;22.00;72.50;;;;;;5013865;28;20572;-13
2022/06/27 01:29:33;;;;;;;8.88;5.32;;;21.90;72.30;;;;;;5014062;28;20069;-13
2022/06/27 01:31:59;;;;;;;6.90;4.70;;;21.90;72.20;;;;;;5013721;28;20033;-13
2022/06/27 01:34:25;;;;;;;6.57;4.40;;;21.90;72.20;;;;;;5013730;28;20116;-13
2022/06/27 01:36:51;;;;;;;8.32;4.80;;;21.90;72.40;;;;;;4997243;28;20505;-14
2022/06/27 01:39:20;;;;;;;8.00;5.15;;;21.90;72.30;;;;;;5013894;28;20043;-13
2022/06/27 01:41:53;;;;;;;10.35;5.03;;;21.90;73.00;;;;;;5013614;28;20122;-12
2022/06/27 01:44:22;;;;;;;8.27;5.53;;;21.80;72.50;;;;;;5013475;28;20041;-14
2022/06/27 01:46:53;;;;;;;9.95;5.40;;;21.80;73.50;;;;;;5013408;28;20025;-14
2022/06/27 01:49:20;;;;;;;11.80;5.95;;;21.70;73.90;;;;;;5013358;28;20029;-13
2022/06/27 01:51:49;;;;;;;9.43;5.32;;;21.70;74.50;;;;;;5013968;28;20061;-12
2022/06/27 01:54:17;;;;;;;9.77;5.93;;;21.70;73.90;;;;;;5025926;28;20028;-13
2022/06/27 01:56:44;;;;;;;9.93;6.40;;;21.60;75.00;;;;;;5076033;28;20036;-12
2022/06/27 01:59:13;;;;;;;9.65;6.07;;;21.60;75.30;;;;;;5073531;28;20025;-13
2022/06/27 02:01:41;;;;;;;11.35;6.20;;;21.60;75.30;;;;;;5074866;28;20384;-13
2022/06/27 02:04:08;;;;;;;11.00;7.13;;;21.60;75.90;;;;;;5075109;28;20027;-13
2022/06/27 02:06:34;;;;;;;9.77;6.60;;;21.60;76.00;;;;;;5074709;28;20025;-12
2022/06/27 02:09:04;;;;;;;12.10;6.95;;;21.60;76.60;;;;;;5075449;28;20024;-13
2022/06/27 02:11:31;;;;;;;12.13;6.82;;;21.60;76.90;;;;;;5074698;28;20029;-13
2022/06/27 02:13:58;;;;;;;11.90;6.60;;;21.60;76.80;;;;;;5073596;28;20106;-12
2022/06/27 02:16:25;;;;;;;9.45;6.03;;;21.60;76.70;;;;;;5074663;28;20476;-13
2022/06/27 02:18:51;;;;;;;9.80;5.68;;;21.60;76.60;;;;;;5074960;28;20029;-12
2022/06/27 02:21:24;;;;;;;9.77;6.00;;;21.60;76.40;;;;;;5074964;28;20472;-13
2022/06/27 02:23:50;;;;;;;9.93;5.70;;;21.60;76.30;;;;;;5074545;28;20424;-13
2022/06/27 02:26:18;;;;;;;9.90;6.28;;;21.70;76.50;;;;;;5074267;28;20078;-14
2022/06/27 02:28:44;;;;;;;10.13;5.65;;;21.60;76.20;;;;;;5074432;28;20119;-12
2022/06/27 02:31:11;;;;;;;10.15;6.00;;;21.60;76.20;;;;;;5074271;28;20103;-13
2022/06/27 02:33:40;;;;;;;11.60;6.25;;;21.60;76.30;;;;;;5074601;28;20028;-13
2022/06/27 02:36:07;;;;;;;11.15;6.40;;;21.60;76.20;;;;;;5073221;28;20486;-13
2022/06/27 02:38:35;;;;;;;9.85;6.38;;;21.60;76.50;;;;;;5074035;28;20033;-13
2022/06/27 02:41:05;;;;;;;12.23;7.60;;;21.60;76.80;;;;;;5074472;28;20095;-13
2022/06/27 02:43:33;;;;;;;9.85;6.40;;;21.60;79.00;;;;;;5074630;28;20063;-13
2022/06/27 02:46:00;;;;;;;11.93;6.95;;;21.60;77.40;;;;;;5073978;28;20025;-13
2022/06/27 02:48:27;;;;;;;10.35;7.13;;;21.60;77.10;;;;;;5073773;28;20021;-13
2022/06/27 02:50:59;;;;;;;12.90;8.32;;;21.60;76.90;;;;;;5073945;28;20365;-14
2022/06/27 02:53:31;;;;;;;13.05;8.30;;;21.60;78.30;;;;;;5073902;28;20020;-13
2022/06/27 02:56:01;;;;;;;13.30;7.23;;;21.60;78.40;;;;;;5073960;28;20035;-13
2022/06/27 02:58:38;;;;;;;14.90;7.40;;;21.60;78.20;;;;;;5073846;28;20036;-13
2022/06/27 03:01:05;;;;;;;12.68;7.75;;;21.60;78.20;;;;;;5073753;28;20028;-13
2022/06/27 03:03:35;;;;;;;11.50;7.53;;;21.60;78.20;;;;;;5074072;28;20075;-12
2022/06/27 03:06:06;;;;;;;11.30;7.47;;;21.60;78.00;;;;;;5073751;28;20365;-13
2022/06/27 03:08:44;;;;;;;14.45;8.43;;;21.60;78.30;;;;;;5073620;28;20480;-13
2022/06/27 03:11:13;;;;;;;15.63;10.40;;;21.50;79.80;;;;;;5073302;28;20488;-13
2022/06/27 03:13:39;;;;;;;11.90;8.38;;;21.50;79.90;;;;;;5073506;28;20097;-13
2022/06/27 03:16:05;;;;;;;16.10;9.55;;;21.50;79.20;;;;;;5073810;28;20017;-13
2022/06/27 03:18:31;;;;;;;14.25;8.73;;;21.60;80.10;;;;;;5073570;28;20087;-13
2022/06/27 03:20:57;;;;;;;16.77;9.10;;;21.60;79.40;;;;;;5073449;28;20028;-13
2022/06/27 03:23:23;;;;;;;17.63;10.00;;;21.60;79.60;;;;;;5073464;28;20035;-13
2022/06/27 03:25:50;;;;;;;16.92;9.38;;;21.60;79.70;;;;;;5073394;28;20059;-12
2022/06/27 03:28:16;;;;;;;13.75;9.20;;;21.60;79.50;;;;;;5073453;28;20074;-13
2022/06/27 03:30:42;;;;;;;15.77;10.20;;;21.60;79.40;;;;;;5073941;28;20494;-12
2022/06/27 03:33:08;;;;;;;16.58;9.40;;;21.60;79.50;;;;;;5073559;28;20032;-13
2022/06/27 03:35:34;;;;;;;13.77;10.07;;;21.70;79.60;;;;;;5073139;28;20107;-13
2022/06/27 03:38:00;;;;;;;16.00;10.80;;;21.70;79.50;;;;;;5073194;28;20123;-12
2022/06/27 03:40:27;;;;;;;13.48;9.45;;;21.70;80.00;;;;;;5071814;28;20365;-12
2022/06/27 03:42:53;;;;;;;14.05;9.38;;;21.70;79.40;;;;;;5073127;28;20029;-12
2022/06/27 03:45:18;;;;;;;14.02;9.23;;;21.80;79.40;;;;;;5073173;28;20027;-12
2022/06/27 03:47:52;;;;;;;14.32;10.05;;;21.80;79.10;;;;;;5073371;28;20025;-12
2022/06/27 03:50:20;;;;;;;15.65;9.35;;;21.80;78.60;;;;;;5073220;28;20380;-13
2022/06/27 03:52:47;;;;;;;17.08;10.95;;;21.80;79.10;;;;;;5073353;28;20058;-13
2022/06/27 03:55:14;;;;;;;13.80;8.98;;;21.90;79.30;;;;;;5073062;28;20055;-14
2022/06/27 03:57:49;;;;;;;11.63;8.60;;;21.90;79.00;;;;;;5071716;28;20029;-13
2022/06/27 04:00:17;;;;;;;11.07;8.05;;;21.90;78.50;;;;;;5072771;28;20524;-15
2022/06/27 04:02:43;;;;;;;12.80;8.48;;;21.90;78.80;;;;;;5073256;28;20050;-14
2022/06/27 04:05:09;;;;;;;15.35;8.55;;;21.90;78.30;;;;;;5073498;28;20032;-14
2022/06/27 04:07:35;;;;;;;16.23;10.27;;;21.90;78.90;;;;;;5073269;28;20086;-14
2022/06/27 04:10:02;;;;;;;13.70;8.18;;;22.00;79.20;;;;;;5073082;28;20028;-14
2022/06/27 04:12:28;;;;;;;13.05;8.80;;;22.00;79.00;;;;;;5072550;28;20526;-13
2022/06/27 04:14:54;;;;;;;14.73;8.90;;;22.10;79.00;;;;;;5072870;28;20115;-13
2022/06/27 04:17:20;;;;;;;16.48;8.82;;;22.00;78.70;;;;;;5072661;28;20032;-13
2022/06/27 04:19:46;;;;;;;12.68;8.48;;;22.10;79.00;;;;;;5072745;28;20028;-13
2022/06/27 04:22:13;;;;;;;13.30;8.70;;;22.10;78.90;;;;;;5074197;28;20033;-12
2022/06/27 04:24:39;;;;;;;12.48;9.73;;;22.10;78.90;;;;;;5076768;28;20099;-13
2022/06/27 04:27:05;;;;;;;15.45;8.13;;;22.20;79.30;;;;;;5075549;28;20055;-13
2022/06/27 04:29:31;;;;;;;20.42;11.15;;;22.30;79.10;;;;;;5077055;28;20101;-14
2022/06/27 04:32:01;;;;;;;17.33;9.43;;;22.40;79.40;;;;;;5075382;28;20028;-13
2022/06/27 04:34:27;;;;;;;14.90;9.18;;;22.40;79.00;;;;;;5076477;28;20488;-13
2022/06/27 04:36:53;;;;;;;16.27;9.57;;;22.40;78.90;;;;;;5075276;28;20037;-12
2022/06/27 04:39:20;;;;;;;15.02;10.15;;;22.50;79.20;;;;;;5076558;28;20071;-13
2022/06/27 04:41:49;;;;;;;18.23;9.88;;;22.60;79.20;;;;;;5076461;28;20037;-13
2022/06/27 04:44:15;;;;;;;15.40;9.38;;;22.60;78.80;;;;;;5076200;28;20024;-13
2022/06/27 04:46:42;;;;;;;17.42;9.30;;;22.80;78.20;;;;;;5076259;28;20028;-15
2022/06/27 04:49:09;;;;;;;17.75;9.85;;;22.80;78.00;;;;;;5076331;28;20056;-14
2022/06/27 04:51:35;;;;;;;15.82;9.10;;;22.90;78.20;;;;;;5076316;28;20032;-15
2022/06/27 04:54:01;;;;;;;12.20;9.20;;;23.00;77.50;;;;;;5076269;28;20028;-13
2022/06/27 04:56:30;;;;;;;15.50;9.65;;;23.10;77.10;;;;;;5075930;28;20119;-14
2022/06/27 04:58:57;;;;;;;14.20;8.48;;;23.20;77.20;;;;;;5077273;28;20063;-14
2022/06/27 05:01:23;;;;;;;15.20;9.43;;;23.30;76.70;;;;;;5076276;28;20395;-13
2022/06/27 05:03:49;;;;;;;14.88;9.77;;;23.40;76.50;;;;;;5076066;28;20484;-14
2022/06/27 05:06:15;;;;;;;14.25;10.05;;;23.40;76.40;;;;;;5075898;28;20024;-15
2022/06/27 05:08:41;;;;;;;14.55;9.73;;;23.50;76.40;;;;;;5076300;28;20029;-13
2022/06/27 05:11:07;;;;;;;13.05;9.10;;;23.60;76.10;;;;;;5075062;28;20101;-13
2022/06/27 05:13:33;;;;;;;15.48;9.45;;;23.70;75.60;;;;;;5075669;28;20071;-13
2022/06/27 05:15:59;;;;;;;14.82;9.50;;;23.80;75.40;;;;;;5076190;28;20473;-13
2022/06/27 05:18:25;;;;;;;18.10;10.05;;;23.90;75.10;;;;;;5075434;28;20391;-12
2022/06/27 05:20:51;;;;;;;15.60;9.10;;;23.90;75.00;;;;;;5075747;28;20380;-12
2022/06/27 05:23:17;;;;;;;18.77;9.23;;;23.90;74.50;;;;;;5076179;28;20476;-12
2022/06/27 05:25:44;;;;;;;15.65;8.48;;;24.10;74.40;;;;;;5075651;28;20044;-13
2022/06/27 05:28:10;;;;;;;14.93;9.43;;;24.20;74.10;;;;;;5075901;28;20017;-12
2022/06/27 05:30:36;;;;;;;12.48;8.05;;;24.30;73.80;;;;;;5075355;28;20380;-12
2022/06/27 05:33:02;;;;;;;15.95;8.85;;;24.40;73.40;;;;;;5075342;28;20021;-12
2022/06/27 05:35:29;;;;;;;13.43;8.18;;;24.40;73.30;;;;;;5075218;28;20028;-15
2022/06/27 05:37:55;;;;;;;13.48;8.05;;;24.50;73.20;;;;;;5075415;28;20029;-13
2022/06/27 05:40:22;;;;;;;15.93;8.45;;;24.60;72.70;;;;;;5075507;28;20027;-13
2022/06/27 05:42:49;;;;;;;12.35;7.78;;;24.70;72.30;;;;;;5075571;28;20066;-12
2022/06/27 05:45:16;;;;;;;12.77;7.63;;;24.80;72.10;;;;;;5075280;28;20036;-12
2022/06/27 05:47:43;;;;;;;11.50;7.18;;;24.90;71.70;;;;;;5075175;28;20028;-12
2022/06/27 05:50:11;;;;;;;13.88;7.95;;;24.90;71.40;;;;;;5075779;28;20423;-12
2022/06/27 05:52:39;;;;;;;12.30;7.55;;;25.10;71.20;;;;;;5074954;28;20025;-13
2022/06/27 05:55:07;;;;;;;12.05;7.45;;;25.20;71.00;;;;;;5075415;28;20553;-13
2022/06/27 05:57:33;;;;;;;14.55;7.45;;;25.30;70.60;;;;;;5074980;28;20025;-14
2022/06/27 06:00:00;;;;;;;19.08;7.80;;;25.40;70.50;;;;;;5075168;28;20028;-14
2022/06/27 06:02:27;;;;;;;13.30;6.35;;;25.50;70.10;;;;;;5074938;28;20063;-13
2022/06/27 06:04:53;;;;;;;12.73;7.65;;;25.60;69.50;;;;;;5075139;28;20464;-13
2022/06/27 06:07:23;;;;;;;12.30;6.82;;;25.80;69.30;;;;;;5074894;28;20028;-13
2022/06/27 06:09:49;;;;;;;14.88;7.85;;;25.90;69.00;;;;;;5073645;28;20032;-12
2022/06/27 06:12:17;;;;;;;14.38;8.25;;;25.90;68.70;;;;;;5074369;28;20048;-13
2022/06/27 06:14:46;;;;;;;12.65;7.00;;;26.00;68.30;;;;;;5074686;28;20033;-13
2022/06/27 06:17:12;;;;;;;11.75;7.25;;;26.10;68.10;;;;;;5075021;28;20036;-12
2022/06/27 06:19:39;;;;;;;7.95;5.60;;;26.20;67.90;;;;;;5074614;28;20619;-12
2022/06/27 06:22:05;;;;;;;10.50;6.15;;;26.40;67.60;;;;;;5075171;28;20044;-13
2022/06/27 06:24:31;;;;;;;10.93;6.45;;;26.50;67.20;;;;;;5074299;28;20028;-12
2022/06/27 06:27:00;;;;;;;11.10;6.72;;;26.60;66.70;;;;;;5074732;28;20021;-13
2022/06/27 06:29:26;;;;;;;9.85;5.65;;;26.70;66.30;;;;;;5074429;28;20032;-12
2022/06/27 06:31:55;;;;;;;15.07;6.82;;;26.80;65.80;;;;;;5074516;28;20078;-14
2022/06/27 06:34:21;;;;;;;11.10;6.07;;;26.90;65.40;;;;;;5074119;28;20491;-15
2022/06/27 06:36:47;;;;;;;11.73;5.47;;;27.00;65.40;;;;;;5074520;28;20033;-14
2022/06/27 06:39:13;;;;;;;12.88;6.30;;;27.20;65.20;;;;;;5074171;28;20028;-14
2022/06/27 06:41:40;;;;;;;10.88;5.75;;;27.30;64.80;;;;;;5074193;28;20029;-14
2022/06/27 06:44:07;;;;;;;8.38;5.60;;;27.40;64.70;;;;;;5074158;28;20074;-13
2022/06/27 06:46:35;;;;;;;12.90;5.82;;;27.50;64.30;;;;;;5072790;28;20071;-13
2022/06/27 06:49:02;;;;;;;9.48;5.95;;;27.70;63.90;;;;;;5074063;28;20025;-13
2022/06/27 06:51:36;;;;;;;8.77;5.63;;;27.80;63.70;;;;;;5073950;28;20028;-13
2022/06/27 06:54:07;;;;;;;8.75;5.07;;;27.90;62.90;;;;;;5074000;28;20471;-13
2022/06/27 06:56:34;;;;;;;8.32;4.93;;;28.10;62.40;;;;;;5074064;28;20410;-13
2022/06/27 06:59:03;;;;;;;9.68;5.43;;;28.20;61.70;;;;;;5073891;28;20102;-13
2022/06/27 07:01:33;;;;;;;11.55;5.60;;;28.30;60.80;;;;;;5073692;28;20060;-12
2022/06/27 07:03:59;;;;;;;9.65;5.20;;;28.40;60.10;;;;;;5073770;28;20024;-13
2022/06/27 07:06:27;;;;;;;8.13;4.68;;;28.40;59.70;;;;;;5073856;28;20103;-14
2022/06/27 07:08:54;;;;;;;8.77;4.50;;;28.50;59.80;;;;;;5073659;28;20365;-14
2022/06/27 07:11:22;;;;;;;11.40;4.97;;;28.70;59.80;;;;;;5073704;28;20029;-14
2022/06/27 07:13:51;;;;;;;9.95;5.32;;;28.80;59.10;;;;;;5074379;28;20472;-12
2022/06/27 07:16:18;;;;;;;8.60;5.10;;;28.80;58.50;;;;;;5073216;28;20502;-12
2022/06/27 07:18:46;;;;;;;9.13;5.63;;;28.90;58.70;;;;;;5073719;28;20036;-12
2022/06/27 07:21:16;;;;;;;6.85;4.43;;;29.10;57.30;;;;;;5073488;28;20036;-15
2022/06/27 07:23:46;;;;;;;8.68;5.00;;;29.20;57.10;;;;;;5074307;28;20099;-14
2022/06/27 07:26:12;;;;;;;8.73;4.80;;;29.30;56.60;;;;;;5073735;28;20029;-13
2022/06/27 07:28:40;;;;;;;12.95;5.00;;;29.40;56.90;;;;;;5073685;28;20070;-13
2022/06/27 07:31:12;;;;;;;8.38;5.18;;;29.60;56.00;;;;;;5073624;28;20036;-13
2022/06/27 07:33:48;;;;;;;9.40;4.95;;;29.80;55.30;;;;;;5073587;28;20078;-13
2022/06/27 07:36:15;;;;;;;9.15;4.22;;;29.90;52.70;;;;;;5073410;28;20107;-13
2022/06/27 07:38:52;;;;;;;10.63;4.85;;;29.90;53.60;;;;;;5073190;28;20036;-13
2022/06/27 07:41:22;;;;;;;13.30;4.47;;;30.10;52.30;;;;;;5073327;28;20032;-13
2022/06/27 07:43:49;;;;;;;9.05;4.28;;;30.20;53.20;;;;;;5073882;28;20016;-13
2022/06/27 07:46:17;;;;;;;8.77;4.50;;;30.40;52.00;;;;;;5073493;28;20029;-13
2022/06/27 07:48:45;;;;;;;6.60;4.40;;;30.60;52.00;;;;;;5073386;28;20104;-13
2022/06/27 07:51:16;;;;;;;9.73;4.30;;;30.70;51.30;;;;;;5073342;28;20024;-13
2022/06/27 07:53:47;;;;;;;12.13;4.70;;;30.80;49.70;;;;;;5073119;28;20027;-13
2022/06/27 07:56:18;;;;;;;9.38;4.22;;;30.90;49.10;;;;;;5072986;28;20431;-13
2022/06/27 07:58:44;;;;;;;11.82;4.90;;;31.10;48.70;;;;;;5073157;28;20449;-13
2022/06/27 08:01:14;;;;;;;9.63;4.40;;;31.10;48.20;;;;;;5072999;28;20052;-13
2022/06/27 08:03:44;;;;;;;10.23;3.88;;;31.10;46.90;;;;;;5072973;28;20374;-13
2022/06/27 08:06:10;;;;;;;8.38;3.92;;;31.30;47.20;;;;;;5072998;28;20056;-13
2022/06/27 08:08:39;;;;;;;11.02;3.90;;;31.50;47.30;;;;;;5072920;28;20044;-13
2022/06/27 08:11:11;;;;;;;9.40;3.97;;;31.70;46.10;;;;;;5073398;28;20036;-13
2022/06/27 08:13:38;;;;;;;5.85;3.50;;;31.90;43.50;;;;;;5072812;28;20049;-13
2022/06/27 08:16:07;;;;;;;11.35;3.63;;;32.10;44.70;;;;;;5073279;28;20029;-13
2022/06/27 08:18:35;;;;;;;8.18;3.97;;;32.40;44.80;;;;;;5072462;28;20052;-15
2022/06/27 08:21:02;;;;;;;10.88;3.70;;;32.50;43.80;;;;;;5072800;28;20463;-13
2022/06/27 08:23:29;;;;;;;8.90;3.50;;;32.80;43.90;;;;;;5072777;28;20032;-13
2022/06/27 08:25:55;;;;;;;12.88;4.28;;;33.00;43.50;;;;;;5072766;28;20021;-13
2022/06/27 08:28:22;;;;;;;7.20;3.72;;;33.20;43.40;;;;;;5072726;28;20020;-13
2022/06/27 08:30:49;;;;;;;6.85;3.72;;;33.40;43.20;;;;;;5073051;28;20024;-13
2022/06/27 08:33:15;;;;;;;7.97;3.33;;;33.60;40.90;;;;;;5072598;28;20032;-13
2022/06/27 08:35:47;;;;;;;9.63;4.13;;;33.50;39.50;;;;;;5071501;28;20025;-13
2022/06/27 08:38:18;;;;;;;6.25;3.10;;;33.60;40.70;;;;;;5072620;28;20085;-13
2022/06/27 08:40:47;;;;;;;9.75;3.50;;;33.50;39.90;;;;;;5072854;28;20029;-13
2022/06/27 08:43:14;;;;;;;9.40;3.85;;;33.70;40.20;;;;;;5072931;28;20090;-12
2022/06/27 08:45:43;;;;;;;12.60;3.72;;;33.80;40.50;;;;;;5072635;28;20095;-12
2022/06/27 08:48:10;;;;;;;6.07;3.20;;;33.80;38.70;;;;;;5072483;28;20060;-12
2022/06/27 08:50:37;;;;;;;8.15;3.47;;;33.80;39.70;;;;;;5072648;28;20082;-12
2022/06/27 08:53:04;;;;;;;5.07;3.05;;;33.90;38.80;;;;;;5072525;28;20531;-13
2022/06/27 08:55:33;;;;;;;8.73;3.42;;;34.10;39.50;;;;;;5072685;28;20033;-12
2022/06/27 08:58:06;;;;;;;8.95;3.50;;;34.40;39.20;;;;;;5072429;28;20059;-12
2022/06/27 09:00:41;;;;;;;8.40;3.25;;;34.50;37.90;;;;;;5072191;28;20476;-12
2022/06/27 09:03:08;;;;;;;6.78;3.25;;;34.50;37.10;;;;;;5072375;28;20461;-12
2022/06/27 09:05:36;;;;;;;7.72;2.92;;;34.60;38.40;;;;;;5072677;28;20074;-12
2022/06/27 09:08:07;;;;;;;7.25;3.00;;;34.60;37.60;;;;;;5072356;28;20086;-12
2022/06/27 09:10:37;;;;;;;7.32;3.10;;;34.90;37.40;;;;;;5075572;28;20086;-13
2022/06/27 09:13:15;;;;;;;8.27;2.85;;;35.10;37.10;;;;;;5075655;28;20059;-12
2022/06/27 09:16:00;;;;;;;9.18;3.00;;;35.20;36.50;;;;;;5075961;28;20056;-13
2022/06/27 09:18:36;;;;;;;8.10;2.90;;;35.40;36.70;;;;;;5075457;28;20440;-12
2022/06/27 09:21:05;;;;;;;9.35;2.80;;;35.50;36.10;;;;;;5076447;28;20048;-13
2022/06/27 09:23:49;;;;;;;6.72;3.00;;;35.70;36.00;;;;;;5076032;28;20021;-13
2022/06/27 09:26:25;;;;;;;5.35;2.70;;;35.70;35.40;;;;;;5075618;28;20067;-13
2022/06/27 09:29:14;;;;;;;8.57;2.95;;;35.80;36.10;;;;;;5075958;28;20564;-12
2022/06/27 09:31:42;;;;;;;7.88;2.72;;;36.00;33.50;;;;;;5076086;28;20025;-12
2022/06/27 09:34:23;;;;;;;10.55;3.00;;;36.10;34.40;;;;;;5075555;28;20028;-12
2022/06/27 09:36:55;;;;;;;9.32;2.70;;;36.30;34.50;;;;;;5076364;28;20078;-13
2022/06/27 09:39:34;;;;;;;7.30;2.60;;;36.20;33.20;;;;;;5075813;28;20050;-13
2022/06/27 09:42:13;;;;;;;9.02;2.72;;;36.30;33.40;;;;;;5076108;28;20105;-12
2022/06/27 09:44:44;;;;;;;7.65;2.60;;;36.40;33.70;;;;;;5075308;28;20404;-13
2022/06/27 09:47:19;;;;;;;6.90;2.75;;;36.70;33.80;;;;;;5075246;28;20027;-13
2022/06/27 09:49:49;;;;;;;5.95;2.70;;;37.00;33.50;;;;;;5075233;28;20035;-13
2022/06/27 09:52:21;;;;;;;6.82;2.15;;;37.30;33.60;;;;;;5075284;28;20017;-12
2022/06/27 09:54:49;;;;;;;5.40;2.00;;;37.40;29.60;;;;;;5075127;28;20028;-12
2022/06/27 09:57:17;;;;;;;8.80;2.40;;;37.40;29.10;;;;;;5075106;28;20480;-14
2022/06/27 09:59:46;;;;;;;7.95;2.45;;;37.30;30.70;;;;;;5075327;28;20024;-13
2022/06/27 10:02:16;;;;;;;8.02;2.55;;;37.30;29.90;;;;;;5075121;28;20021;-13
2022/06/27 10:04:51;;;;;;;4.63;2.00;;;37.40;30.20;;;;;;5149038;22;20040;-15
2022/06/27 10:07:21;;;;;;;8.13;2.10;;;37.20;30.70;;;;;;5074959;28;20036;-14
2022/06/27 10:09:52;;;;;;;6.97;2.30;;;37.20;29.80;;;;;;5074909;28;20505;-17
2022/06/27 10:12:36;;;;;;;10.65;2.88;;;37.30;30.10;;;;;;5075036;28;20032;-16
2022/06/27 10:15:11;;;;;;;6.60;2.85;;;37.50;30.20;;;;;;5074844;28;20055;-16
2022/06/27 10:17:45;;;;;;;6.93;2.35;;;37.60;30.00;;;;;;5074678;28;20063;-16
2022/06/27 10:20:20;;;;;;;6.78;2.30;;;37.90;29.90;;;;;;5074391;28;20040;-16
2022/06/27 10:23:09;;;;;;;4.97;2.15;;;37.80;28.80;;;;;;5074615;28;20037;-16
2022/06/27 10:25:44;;;;;;;6.90;2.70;;;38.00;28.10;;;;;;5069091;28;20033;-16
2022/06/27 10:28:09;;;;;;;6.68;2.45;;;38.00;29.00;;;;;;5074620;28;20067;-15
2022/06/27 10:30:56;;;;;;;6.10;2.30;;;38.20;28.90;;;;;;5073137;28;20063;-15
2022/06/27 10:33:25;;;;;;;9.63;2.28;;;38.30;28.80;;;;;;5074387;28;20025;-13
2022/06/27 10:36:02;;;;;;;6.53;1.92;;;38.20;28.90;;;;;;5074637;28;20029;-15
2022/06/27 10:38:39;;;;;;;9.05;2.55;;;38.30;29.00;;;;;;5074382;28;20051;-16
2022/06/27 10:41:27;;;;;;;9.02;2.22;;;38.30;29.00;;;;;;5074635;28;20086;-16
2022/06/27 10:43:54;;;;;;;8.25;2.58;;;37.90;28.50;;;;;;5032307;28;20061;-15
2022/06/27 10:46:20;;;;;;;7.80;2.67;;;37.60;29.70;;;;;;5032243;28;20038;-15
2022/06/27 10:48:55;;;;;;;7.72;2.13;;;37.80;29.70;;;;;;5032138;28;20033;-16
2022/06/27 10:51:28;;;;;;;10.98;2.50;;;38.20;29.00;;;;;;5032215;28;20041;-15
2022/06/27 10:54:08;;;;;;;9.02;2.45;;;38.50;27.30;;;;;;5032116;28;20061;-14
2022/06/27 10:56:54;;;;;;;6.20;2.17;;;38.40;28.30;;;;;;5031754;28;20116;-15
2022/06/27 10:59:20;;;;;;;10.07;2.35;;;38.20;28.90;;;;;;5032019;28;20026;-16
2022/06/27 11:01:57;;;;;;;10.95;2.83;;;38.00;29.60;;;;;;5032265;28;20374;-16
2022/06/27 11:04:45;;;;;;;6.32;2.17;;;37.50;30.10;;;;;;5031483;28;20061;-15
2022/06/27 11:07:11;;;;;;;8.10;2.53;;;37.80;30.40;;;;;;5031882;28;20041;-16
2022/06/27 11:09:47;;;;;;;8.63;2.70;;;38.10;30.20;;;;;;5031809;28;20477;-13
2022/06/27 11:12:20;;;;;;;7.03;2.53;;;38.20;29.20;;;;;;5031644;28;20021;-17
2022/06/27 11:14:50;;;;;;;8.57;2.50;;;38.60;30.40;;;;;;5031770;28;20046;-15
2022/06/27 11:17:37;;;;;;;5.95;2.30;;;39.00;29.10;;;;;;5031594;28;20120;-15
2022/06/27 11:20:21;;;;;;;4.43;2.10;;;39.20;27.70;;;;;;5037198;28;20037;-16
2022/06/27 11:23:06;;;;;;;7.07;2.40;;;39.40;27.10;;;;;;5073482;28;20070;-15
2022/06/27 11:25:32;;;;;;;7.60;2.67;;;39.40;28.00;;;;;;5073743;28;20055;-14
2022/06/27 11:33:39;;;;;;;6.70;2.30;;;39.10;27.30;;;;;;5073370;28;20070;-13
2022/06/27 11:36:06;;;;;;;5.60;2.38;;;39.30;27.50;;;;;;5073429;28;20024;-16
2022/06/27 11:38:47;;;;;;;11.93;2.53;;;39.30;27.40;;;;;;5073130;28;20033;-14
2022/06/27 11:41:16;;;;;;;7.57;2.30;;;39.40;27.50;;;;;;5073647;28;20039;-15
2022/06/27 11:43:47;;;;;;;6.57;2.20;;;39.90;28.20;;;;;;5073249;28;20059;-16
2022/06/27 11:46:37;;;;;;;10.32;2.60;;;39.90;26.50;;;;;;5073611;28;20439;-20
2022/06/27 11:49:07;;;;;;;8.10;2.42;;;40.30;26.40;;;;;;5073085;28;20052;-15
2022/06/27 11:51:38;;;;;;;6.10;2.55;;;40.00;26.30;;;;;;5073150;28;20549;-14
2022/06/27 11:54:14;;;;;;;9.02;2.40;;;39.90;26.40;;;;;;5073368;28;20029;-16
2022/06/27 11:56:46;;;;;;;10.65;2.40;;;40.00;26.60;;;;;;5073072;28;20025;-15
2022/06/27 11:59:15;;;;;;;7.18;2.05;;;39.90;26.90;;;;;;5071952;28;20048;-16
2022/06/27 12:01:50;;;;;;;7.15;2.40;;;40.30;26.90;;;;;;5073377;28;20025;-16
2022/06/27 12:04:19;;;;;;;10.38;2.72;;;40.80;26.40;;;;;;5072487;28;20056;-16
2022/06/27 12:06:56;;;;;;;8.23;2.55;;;41.00;25.90;;;;;;5071806;28;20044;-15
2022/06/27 12:09:25;;;;;;;11.48;2.53;;;40.90;26.00;;;;;;5073358;28;20024;-15
2022/06/27 12:12:04;;;;;;;8.13;2.42;;;40.50;26.20;;;;;;5072047;28;20020;-14
2022/06/27 12:14:42;;;;;;;9.57;2.78;;;40.40;26.50;;;;;;5073550;28;20024;-14
2022/06/27 12:17:08;;;;;;;9.50;2.85;;;40.00;26.60;;;;;;5072877;28;20570;-15
2022/06/27 12:19:34;;;;;;;13.20;3.08;;;40.20;26.90;;;;;;5072782;28;20123;-14
2022/06/27 12:21:59;;;;;;;7.80;2.67;;;40.40;26.40;;;;;;5072833;28;20112;-13
2022/06/27 12:24:26;;;;;;;11.10;2.80;;;40.20;26.70;;;;;;5072854;28;20120;-16
2022/06/27 12:26:53;;;;;;;11.75;2.70;;;40.20;26.80;;;;;;5071947;28;20146;-15
2022/06/27 12:29:19;;;;;;;8.68;2.60;;;39.90;27.20;;;;;;5072787;28;20032;-14
2022/06/27 12:31:45;;;;;;;12.88;3.10;;;39.80;27.10;;;;;;5072835;28;20029;-13
2022/06/27 12:34:12;;;;;;;10.95;2.60;;;39.70;27.00;;;;;;5072723;28;20492;-14
2022/06/27 12:36:38;;;;;;;11.32;2.78;;;39.90;27.80;;;;;;5071799;28;20017;-14
2022/06/27 12:39:06;;;;;;;10.10;2.50;;;40.10;27.60;;;;;;5073804;28;20031;-14
2022/06/27 12:41:34;;;;;;;8.70;2.47;;;40.20;27.20;;;;;;5072618;28;20025;-16
2022/06/27 12:44:00;;;;;;;15.98;3.17;;;40.30;27.80;;;;;;5075371;28;20032;-15
2022/06/27 12:46:27;;;;;;;33.10;28.05;;;40.20;27.00;;;;;;5076212;28;20024;-15
2022/06/27 12:48:55;;;;;;;8.48;2.72;;;39.90;27.30;;;;;;5076338;28;20024;-15
2022/06/27 12:51:22;;;;;;;10.63;2.80;;;39.70;28.30;;;;;;5076440;28;20106;-15
2022/06/27 12:53:49;;;;;;;13.10;2.78;;;40.00;28.50;;;;;;5076342;28;20028;-15
2022/06/27 12:56:16;;;;;;;9.93;2.60;;;40.20;28.50;;;;;;5076145;28;20029;-16